Portada
METAR-TAF:

METAR-TAF

Aeroports :

La Chaux-de-Fonds, Suïssa

latitud: 47-05-03N, longitud: 006-47-37E, altitud: 1027 m

Observació

L'informe es va fer fa 22 minuts, a les 16:50 UTC
Vent 6 kt del Nord, variant entre Oest/Nord-Oest i Est
Temperatura 20°C
Humitat 40%
Pressió 1016 hPa
Visibilitat 10 km o més
sense núvols per sota de 1500 mi sense presència de cumulonimbus.

METAR: LSGC 021650Z 01006KT 300V100 CAVOK 20/06 Q1016

Hora: 19:12 (17:12 UTC)

Pronòstic

L'informe es va fer fa 2 hores i 47 minuts, a les 14:25 UTC
Pronòstic vàlid del 02 a les 15 UTC al 02 a les 24 UTC
Vent 7 kt del Nord-Est
Visibilitat 10 km o més
Escasses núvols a una alçada de 3500 ft

TAF: LSGC 021425Z 0215/0224 04007KT 9999 FEW035

Observacions i pronòstics meteorològics de més de 4000 aeroports (METAR i TAF).

Les estacions disponibles són els punts grocs i vermells al mapa.

Posi el ratolí al punt desitjat per veure el nom de l'estació.

Feu clic per veure les observacions i els pronòstics meteorològics.

Per canviar el mapa: feu clic els botons verds amb una creu de color negre per apropar; al botó verd amb un guió per allunyar la imatge; o en les fletxes verdes per a mapes adjacents.


METAR-TAF: